sensor_id;sensor_type;location;lat;lon;timestamp;P1;durP1;ratioP1;P2;durP2;ratioP2
4857;SDS011;58975;51.978;8.472;2023-09-19T00:01:49;5.57;;;2.25;;
4857;SDS011;58975;51.978;8.472;2023-09-19T00:06:45;6.60;;;2.70;;
4857;SDS011;58975;51.978;8.472;2023-09-19T00:11:43;6.32;;;2.65;;
4857;SDS011;58975;51.978;8.472;2023-09-19T00:16:40;5.97;;;3.10;;
4857;SDS011;58975;51.978;8.472;2023-09-19T00:21:37;4.38;;;2.72;;
4857;SDS011;58975;51.978;8.472;2023-09-19T00:26:34;5.20;;;2.78;;
4857;SDS011;58975;51.978;8.472;2023-09-19T00:31:30;12.68;;;2.60;;
4857;SDS011;58975;51.978;8.472;2023-09-19T00:36:27;5.43;;;2.13;;
4857;SDS011;58975;51.978;8.472;2023-09-19T00:41:25;9.10;;;2.67;;
4857;SDS011;58975;51.978;8.472;2023-09-19T00:46:22;7.07;;;2.88;;
4857;SDS011;58975;51.978;8.472;2023-09-19T00:51:19;5.13;;;2.38;;
4857;SDS011;58975;51.978;8.472;2023-09-19T00:56:18;6.22;;;2.60;;
4857;SDS011;58975;51.978;8.472;2023-09-19T01:01:15;3.97;;;3.03;;
4857;SDS011;58975;51.978;8.472;2023-09-19T01:11:27;9.45;;;3.70;;
4857;SDS011;58975;51.978;8.472;2023-09-19T01:16:41;7.65;;;4.07;;
4857;SDS011;58975;51.978;8.472;2023-09-19T01:32:34;6.43;;;3.40;;
4857;SDS011;58975;51.978;8.472;2023-09-19T01:37:34;9.40;;;3.95;;
4857;SDS011;58975;51.978;8.472;2023-09-19T01:42:31;13.80;;;3.92;;
4857;SDS011;58975;51.978;8.472;2023-09-19T01:47:44;7.97;;;3.72;;
4857;SDS011;58975;51.978;8.472;2023-09-19T01:52:47;9.63;;;3.92;;
4857;SDS011;58975;51.978;8.472;2023-09-19T01:57:59;17.95;;;4.60;;
4857;SDS011;58975;51.978;8.472;2023-09-19T02:03:01;8.30;;;3.67;;
4857;SDS011;58975;51.978;8.472;2023-09-19T02:07:59;11.35;;;3.17;;
4857;SDS011;58975;51.978;8.472;2023-09-19T02:12:56;8.60;;;2.80;;
4857;SDS011;58975;51.978;8.472;2023-09-19T02:17:52;11.57;;;3.92;;
4857;SDS011;58975;51.978;8.472;2023-09-19T02:22:50;8.27;;;2.20;;
4857;SDS011;58975;51.978;8.472;2023-09-19T02:27:46;18.88;;;4.00;;
4857;SDS011;58975;51.978;8.472;2023-09-19T02:32:43;14.50;;;3.17;;
4857;SDS011;58975;51.978;8.472;2023-09-19T02:37:39;7.90;;;2.35;;
4857;SDS011;58975;51.978;8.472;2023-09-19T02:42:36;11.20;;;2.92;;
4857;SDS011;58975;51.978;8.472;2023-09-19T02:47:32;6.72;;;2.13;;
4857;SDS011;58975;51.978;8.472;2023-09-19T02:52:29;12.63;;;2.70;;
4857;SDS011;58975;51.978;8.472;2023-09-19T02:57:25;13.32;;;2.65;;
4857;SDS011;58975;51.978;8.472;2023-09-19T03:02:23;14.15;;;2.92;;
4857;SDS011;58975;51.978;8.472;2023-09-19T03:07:20;13.38;;;2.95;;
4857;SDS011;58975;51.978;8.472;2023-09-19T03:12:17;16.08;;;2.60;;
4857;SDS011;58975;51.978;8.472;2023-09-19T03:17:13;9.75;;;2.70;;
4857;SDS011;58975;51.978;8.472;2023-09-19T03:22:11;10.85;;;2.28;;
4857;SDS011;58975;51.978;8.472;2023-09-19T03:27:09;9.15;;;2.30;;
4857;SDS011;58975;51.978;8.472;2023-09-19T03:32:06;11.57;;;2.38;;
4857;SDS011;58975;51.978;8.472;2023-09-19T03:37:03;16.55;;;3.47;;
4857;SDS011;58975;51.978;8.472;2023-09-19T03:42:00;10.32;;;2.72;;
4857;SDS011;58975;51.978;8.472;2023-09-19T03:46:57;10.20;;;2.40;;
4857;SDS011;58975;51.978;8.472;2023-09-19T03:51:54;16.95;;;3.33;;
4857;SDS011;58975;51.978;8.472;2023-09-19T03:56:50;6.75;;;2.00;;
4857;SDS011;58975;51.978;8.472;2023-09-19T04:01:47;18.10;;;2.42;;
4857;SDS011;58975;51.978;8.472;2023-09-19T04:06:43;13.38;;;1.80;;
4857;SDS011;58975;51.978;8.472;2023-09-19T04:11:40;9.50;;;2.63;;
4857;SDS011;58975;51.978;8.472;2023-09-19T04:16:36;19.80;;;3.33;;
4857;SDS011;58975;51.978;8.472;2023-09-19T04:21:33;12.82;;;2.28;;
4857;SDS011;58975;51.978;8.472;2023-09-19T04:26:30;12.98;;;2.30;;
4857;SDS011;58975;51.978;8.472;2023-09-19T04:31:27;11.13;;;2.33;;
4857;SDS011;58975;51.978;8.472;2023-09-19T04:36:24;12.45;;;2.92;;
4857;SDS011;58975;51.978;8.472;2023-09-19T04:41:31;13.40;;;1.97;;
4857;SDS011;58975;51.978;8.472;2023-09-19T04:46:28;12.23;;;2.63;;
4857;SDS011;58975;51.978;8.472;2023-09-19T04:51:24;8.48;;;1.92;;
4857;SDS011;58975;51.978;8.472;2023-09-19T04:56:21;9.13;;;1.87;;
4857;SDS011;58975;51.978;8.472;2023-09-19T05:01:19;13.40;;;2.05;;
4857;SDS011;58975;51.978;8.472;2023-09-19T05:06:19;9.10;;;1.88;;
4857;SDS011;58975;51.978;8.472;2023-09-19T05:11:19;17.50;;;2.75;;
4857;SDS011;58975;51.978;8.472;2023-09-19T05:16:18;16.23;;;2.88;;
4857;SDS011;58975;51.978;8.472;2023-09-19T05:21:15;5.72;;;1.80;;
4857;SDS011;58975;51.978;8.472;2023-09-19T05:26:11;13.35;;;2.13;;
4857;SDS011;58975;51.978;8.472;2023-09-19T05:31:08;8.68;;;1.48;;
4857;SDS011;58975;51.978;8.472;2023-09-19T05:36:05;8.95;;;2.13;;
4857;SDS011;58975;51.978;8.472;2023-09-19T05:41:02;10.57;;;1.95;;
4857;SDS011;58975;51.978;8.472;2023-09-19T05:45:59;11.15;;;2.63;;
4857;SDS011;58975;51.978;8.472;2023-09-19T05:50:56;8.77;;;1.90;;
4857;SDS011;58975;51.978;8.472;2023-09-19T05:55:52;9.98;;;2.63;;
4857;SDS011;58975;51.978;8.472;2023-09-19T06:00:50;12.73;;;2.37;;
4857;SDS011;58975;51.978;8.472;2023-09-19T06:05:46;10.43;;;2.38;;
4857;SDS011;58975;51.978;8.472;2023-09-19T06:10:46;11.80;;;2.22;;
4857;SDS011;58975;51.978;8.472;2023-09-19T06:15:43;8.47;;;2.07;;
4857;SDS011;58975;51.978;8.472;2023-09-19T06:20:39;11.75;;;1.80;;
4857;SDS011;58975;51.978;8.472;2023-09-19T06:25:40;10.02;;;1.77;;
4857;SDS011;58975;51.978;8.472;2023-09-19T06:30:37;9.88;;;1.83;;
4857;SDS011;58975;51.978;8.472;2023-09-19T06:35:36;8.07;;;1.55;;
4857;SDS011;58975;51.978;8.472;2023-09-19T06:40:36;10.85;;;1.77;;
4857;SDS011;58975;51.978;8.472;2023-09-19T06:45:32;12.60;;;2.83;;
4857;SDS011;58975;51.978;8.472;2023-09-19T06:50:29;15.93;;;2.53;;
4857;SDS011;58975;51.978;8.472;2023-09-19T07:00:28;12.68;;;2.20;;
4857;SDS011;58975;51.978;8.472;2023-09-19T07:05:28;9.73;;;2.20;;
4857;SDS011;58975;51.978;8.472;2023-09-19T07:10:25;9.30;;;1.83;;
4857;SDS011;58975;51.978;8.472;2023-09-19T07:15:24;9.23;;;1.98;;
4857;SDS011;58975;51.978;8.472;2023-09-19T07:20:21;4.88;;;1.63;;
4857;SDS011;58975;51.978;8.472;2023-09-19T07:25:19;10.13;;;1.45;;
4857;SDS011;58975;51.978;8.472;2023-09-19T07:30:15;16.20;;;1.92;;
4857;SDS011;58975;51.978;8.472;2023-09-19T07:35:12;10.45;;;2.10;;
4857;SDS011;58975;51.978;8.472;2023-09-19T07:40:09;9.80;;;1.75;;
4857;SDS011;58975;51.978;8.472;2023-09-19T07:45:07;12.70;;;2.88;;
4857;SDS011;58975;51.978;8.472;2023-09-19T07:50:04;8.60;;;2.53;;
4857;SDS011;58975;51.978;8.472;2023-09-19T07:55:04;10.48;;;3.25;;
4857;SDS011;58975;51.978;8.472;2023-09-19T08:00:03;10.18;;;2.05;;
4857;SDS011;58975;51.978;8.472;2023-09-19T08:05:04;10.40;;;1.80;;
4857;SDS011;58975;51.978;8.472;2023-09-19T08:10:07;9.85;;;2.03;;
4857;SDS011;58975;51.978;8.472;2023-09-19T08:20:02;9.77;;;1.48;;
4857;SDS011;58975;51.978;8.472;2023-09-19T08:25:01;18.42;;;2.33;;
4857;SDS011;58975;51.978;8.472;2023-09-19T08:30:02;10.38;;;1.80;;
4857;SDS011;58975;51.978;8.472;2023-09-19T08:34:59;10.77;;;2.15;;
4857;SDS011;58975;51.978;8.472;2023-09-19T08:39:56;6.63;;;1.73;;
4857;SDS011;58975;51.978;8.472;2023-09-19T08:44:54;5.47;;;1.70;;
4857;SDS011;58975;51.978;8.472;2023-09-19T08:50:16;10.38;;;1.88;;
4857;SDS011;58975;51.978;8.472;2023-09-19T08:55:15;11.10;;;2.53;;
4857;SDS011;58975;51.978;8.472;2023-09-19T09:00:17;12.10;;;2.47;;
4857;SDS011;58975;51.978;8.472;2023-09-19T09:05:14;9.67;;;1.97;;
4857;SDS011;58975;51.978;8.472;2023-09-19T09:10:18;16.10;;;2.70;;
4857;SDS011;58975;51.978;8.472;2023-09-19T09:15:19;7.00;;;1.60;;
4857;SDS011;58975;51.978;8.472;2023-09-19T09:20:17;14.15;;;2.45;;
4857;SDS011;58975;51.978;8.472;2023-09-19T09:25:15;13.57;;;1.77;;
4857;SDS011;58975;51.978;8.472;2023-09-19T09:30:33;10.02;;;2.78;;
4857;SDS011;58975;51.978;8.472;2023-09-19T09:35:31;7.88;;;1.90;;
4857;SDS011;58975;51.978;8.472;2023-09-19T09:40:27;9.82;;;1.92;;
4857;SDS011;58975;51.978;8.472;2023-09-19T09:45:43;11.02;;;2.20;;
4857;SDS011;58975;51.978;8.472;2023-09-19T09:50:48;7.68;;;1.80;;
4857;SDS011;58975;51.978;8.472;2023-09-19T10:01:03;7.40;;;1.60;;
4857;SDS011;58975;51.978;8.472;2023-09-19T10:06:11;11.30;;;2.38;;
4857;SDS011;58975;51.978;8.472;2023-09-19T10:11:21;8.93;;;1.95;;
4857;SDS011;58975;51.978;8.472;2023-09-19T10:16:26;10.88;;;2.28;;
4857;SDS011;58975;51.978;8.472;2023-09-19T10:21:28;7.50;;;2.03;;
4857;SDS011;58975;51.978;8.472;2023-09-19T10:26:26;8.00;;;1.98;;
4857;SDS011;58975;51.978;8.472;2023-09-19T10:31:27;10.05;;;3.00;;
4857;SDS011;58975;51.978;8.472;2023-09-19T10:36:24;10.57;;;1.85;;
4857;SDS011;58975;51.978;8.472;2023-09-19T10:46:19;11.23;;;1.70;;
4857;SDS011;58975;51.978;8.472;2023-09-19T10:51:16;6.60;;;1.50;;
4857;SDS011;58975;51.978;8.472;2023-09-19T10:56:18;6.53;;;2.05;;
4857;SDS011;58975;51.978;8.472;2023-09-19T11:01:18;11.43;;;2.15;;
4857;SDS011;58975;51.978;8.472;2023-09-19T11:06:17;9.40;;;1.90;;
4857;SDS011;58975;51.978;8.472;2023-09-19T11:22:03;9.90;;;1.80;;
4857;SDS011;58975;51.978;8.472;2023-09-19T11:27:10;7.60;;;1.40;;
4857;SDS011;58975;51.978;8.472;2023-09-19T11:32:13;7.35;;;2.15;;
4857;SDS011;58975;51.978;8.472;2023-09-19T11:42:40;8.15;;;1.88;;
4857;SDS011;58975;51.978;8.472;2023-09-19T11:47:46;6.25;;;1.60;;
4857;SDS011;58975;51.978;8.472;2023-09-19T11:52:44;7.25;;;2.00;;
4857;SDS011;58975;51.978;8.472;2023-09-19T11:57:43;7.93;;;2.28;;
4857;SDS011;58975;51.978;8.472;2023-09-19T12:02:39;9.90;;;2.00;;
4857;SDS011;58975;51.978;8.472;2023-09-19T12:07:43;10.38;;;2.22;;
4857;SDS011;58975;51.978;8.472;2023-09-19T12:12:47;10.13;;;1.83;;
4857;SDS011;58975;51.978;8.472;2023-09-19T12:17:49;6.97;;;1.63;;
4857;SDS011;58975;51.978;8.472;2023-09-19T12:22:46;4.82;;;1.40;;
4857;SDS011;58975;51.978;8.472;2023-09-19T12:27:44;6.40;;;2.10;;
4857;SDS011;58975;51.978;8.472;2023-09-19T12:32:43;7.55;;;1.67;;
4857;SDS011;58975;51.978;8.472;2023-09-19T12:37:51;6.27;;;1.50;;
4857;SDS011;58975;51.978;8.472;2023-09-19T12:42:49;10.18;;;2.03;;
4857;SDS011;58975;51.978;8.472;2023-09-19T12:53:25;6.03;;;1.67;;
4857;SDS011;58975;51.978;8.472;2023-09-19T12:58:25;6.63;;;1.60;;
4857;SDS011;58975;51.978;8.472;2023-09-19T13:08:25;7.50;;;1.88;;
4857;SDS011;58975;51.978;8.472;2023-09-19T13:13:27;6.82;;;1.75;;
4857;SDS011;58975;51.978;8.472;2023-09-19T13:18:25;5.53;;;1.52;;
4857;SDS011;58975;51.978;8.472;2023-09-19T13:23:26;4.40;;;1.55;;
4857;SDS011;58975;51.978;8.472;2023-09-19T13:28:23;8.15;;;2.03;;
4857;SDS011;58975;51.978;8.472;2023-09-19T13:33:19;4.38;;;1.15;;
4857;SDS011;58975;51.978;8.472;2023-09-19T13:38:17;6.15;;;1.48;;
4857;SDS011;58975;51.978;8.472;2023-09-19T13:48:12;3.35;;;1.35;;
4857;SDS011;58975;51.978;8.472;2023-09-19T13:53:09;8.38;;;1.52;;
4857;SDS011;58975;51.978;8.472;2023-09-19T13:58:05;11.55;;;1.55;;
4857;SDS011;58975;51.978;8.472;2023-09-19T14:03:03;5.80;;;1.10;;
4857;SDS011;58975;51.978;8.472;2023-09-19T14:08:01;6.68;;;2.00;;
4857;SDS011;58975;51.978;8.472;2023-09-19T14:12:59;4.80;;;1.30;;
4857;SDS011;58975;51.978;8.472;2023-09-19T14:17:57;4.03;;;1.13;;
4857;SDS011;58975;51.978;8.472;2023-09-19T14:22:55;5.97;;;1.67;;
4857;SDS011;58975;51.978;8.472;2023-09-19T14:27:54;5.35;;;1.60;;
4857;SDS011;58975;51.978;8.472;2023-09-19T14:32:50;4.65;;;1.20;;
4857;SDS011;58975;51.978;8.472;2023-09-19T14:37:47;4.63;;;1.33;;
4857;SDS011;58975;51.978;8.472;2023-09-19T14:42:43;4.47;;;1.15;;
4857;SDS011;58975;51.978;8.472;2023-09-19T14:52:38;4.53;;;0.85;;
4857;SDS011;58975;51.978;8.472;2023-09-19T14:57:36;5.85;;;1.65;;
4857;SDS011;58975;51.978;8.472;2023-09-19T15:02:36;3.97;;;1.50;;
4857;SDS011;58975;51.978;8.472;2023-09-19T15:07:36;5.68;;;1.63;;
4857;SDS011;58975;51.978;8.472;2023-09-19T15:12:34;3.05;;;1.25;;
4857;SDS011;58975;51.978;8.472;2023-09-19T15:22:28;4.32;;;1.15;;
4857;SDS011;58975;51.978;8.472;2023-09-19T15:27:24;4.18;;;1.30;;
4857;SDS011;58975;51.978;8.472;2023-09-19T15:32:21;4.93;;;1.65;;
4857;SDS011;58975;51.978;8.472;2023-09-19T15:37:17;6.60;;;1.25;;
4857;SDS011;58975;51.978;8.472;2023-09-19T15:42:16;8.95;;;1.45;;
4857;SDS011;58975;51.978;8.472;2023-09-19T15:47:12;2.67;;;0.82;;
4857;SDS011;58975;51.978;8.472;2023-09-19T15:52:10;0.87;;;0.50;;
4857;SDS011;58975;51.978;8.472;2023-09-19T15:57:06;5.03;;;0.93;;
4857;SDS011;58975;51.978;8.472;2023-09-19T16:02:02;6.05;;;1.35;;
4857;SDS011;58975;51.978;8.472;2023-09-19T16:07:00;4.80;;;0.80;;
4857;SDS011;58975;51.978;8.472;2023-09-19T16:16:54;1.85;;;0.88;;
4857;SDS011;58975;51.978;8.472;2023-09-19T16:21:51;1.55;;;0.70;;
4857;SDS011;58975;51.978;8.472;2023-09-19T16:26:47;3.15;;;0.85;;
4857;SDS011;58975;51.978;8.472;2023-09-19T16:31:45;3.30;;;0.75;;
4857;SDS011;58975;51.978;8.472;2023-09-19T16:36:41;5.70;;;0.65;;
4857;SDS011;58975;51.978;8.472;2023-09-19T16:41:38;2.23;;;0.77;;
4857;SDS011;58975;51.978;8.472;2023-09-19T16:46:36;2.65;;;0.90;;
4857;SDS011;58975;51.978;8.472;2023-09-19T16:51:33;1.83;;;0.65;;
4857;SDS011;58975;51.978;8.472;2023-09-19T16:56:29;4.35;;;0.63;;
4857;SDS011;58975;51.978;8.472;2023-09-19T17:01:31;3.03;;;0.80;;
4857;SDS011;58975;51.978;8.472;2023-09-19T17:06:29;2.78;;;0.82;;
4857;SDS011;58975;51.978;8.472;2023-09-19T17:11:25;2.67;;;0.55;;
4857;SDS011;58975;51.978;8.472;2023-09-19T17:16:22;3.63;;;0.68;;
4857;SDS011;58975;51.978;8.472;2023-09-19T17:26:18;2.35;;;0.50;;
4857;SDS011;58975;51.978;8.472;2023-09-19T17:31:20;3.03;;;1.10;;
4857;SDS011;58975;51.978;8.472;2023-09-19T17:36:20;3.42;;;0.85;;
4857;SDS011;58975;51.978;8.472;2023-09-19T17:41:18;7.85;;;1.77;;
4857;SDS011;58975;51.978;8.472;2023-09-19T17:46:18;6.15;;;1.23;;
4857;SDS011;58975;51.978;8.472;2023-09-19T17:51:16;3.80;;;0.70;;
4857;SDS011;58975;51.978;8.472;2023-09-19T17:56:14;6.32;;;1.20;;
4857;SDS011;58975;51.978;8.472;2023-09-19T18:01:16;2.45;;;0.75;;
4857;SDS011;58975;51.978;8.472;2023-09-19T18:06:16;5.85;;;1.33;;
4857;SDS011;58975;51.978;8.472;2023-09-19T18:11:13;4.68;;;0.93;;
4857;SDS011;58975;51.978;8.472;2023-09-19T18:16:12;3.78;;;0.60;;
4857;SDS011;58975;51.978;8.472;2023-09-19T18:21:08;8.70;;;0.70;;
4857;SDS011;58975;51.978;8.472;2023-09-19T18:26:06;1.87;;;0.80;;
4857;SDS011;58975;51.978;8.472;2023-09-19T18:31:06;7.47;;;0.90;;
4857;SDS011;58975;51.978;8.472;2023-09-19T18:36:03;2.70;;;1.10;;
4857;SDS011;58975;51.978;8.472;2023-09-19T18:41:07;2.22;;;0.80;;
4857;SDS011;58975;51.978;8.472;2023-09-19T18:46:04;4.03;;;1.02;;
4857;SDS011;58975;51.978;8.472;2023-09-19T18:51:05;4.15;;;0.88;;
4857;SDS011;58975;51.978;8.472;2023-09-19T18:56:09;4.38;;;0.70;;
4857;SDS011;58975;51.978;8.472;2023-09-19T19:01:10;1.13;;;0.50;;
4857;SDS011;58975;51.978;8.472;2023-09-19T19:06:10;2.45;;;0.70;;
4857;SDS011;58975;51.978;8.472;2023-09-19T19:11:15;0.80;;;0.60;;
4857;SDS011;58975;51.978;8.472;2023-09-19T19:16:13;2.72;;;0.60;;
4857;SDS011;58975;51.978;8.472;2023-09-19T19:21:12;2.22;;;0.90;;
4857;SDS011;58975;51.978;8.472;2023-09-19T19:26:12;2.25;;;0.68;;
4857;SDS011;58975;51.978;8.472;2023-09-19T19:31:09;2.65;;;1.15;;
4857;SDS011;58975;51.978;8.472;2023-09-19T19:36:07;1.13;;;0.60;;
4857;SDS011;58975;51.978;8.472;2023-09-19T19:41:06;2.35;;;1.00;;
4857;SDS011;58975;51.978;8.472;2023-09-19T19:46:05;5.65;;;1.10;;
4857;SDS011;58975;51.978;8.472;2023-09-19T19:51:05;4.53;;;1.20;;
4857;SDS011;58975;51.978;8.472;2023-09-19T19:56:03;7.15;;;2.00;;
4857;SDS011;58975;51.978;8.472;2023-09-19T20:01:02;5.20;;;1.40;;
4857;SDS011;58975;51.978;8.472;2023-09-19T20:06:02;2.13;;;1.63;;
4857;SDS011;58975;51.978;8.472;2023-09-19T20:11:03;4.15;;;1.48;;
4857;SDS011;58975;51.978;8.472;2023-09-19T20:16:02;3.30;;;1.40;;
4857;SDS011;58975;51.978;8.472;2023-09-19T20:21:05;3.83;;;1.17;;
4857;SDS011;58975;51.978;8.472;2023-09-19T20:26:06;2.63;;;1.35;;
4857;SDS011;58975;51.978;8.472;2023-09-19T20:31:06;6.65;;;2.13;;
4857;SDS011;58975;51.978;8.472;2023-09-19T20:36:07;5.18;;;1.52;;
4857;SDS011;58975;51.978;8.472;2023-09-19T20:41:06;4.88;;;1.40;;
4857;SDS011;58975;51.978;8.472;2023-09-19T20:46:04;5.40;;;1.95;;
4857;SDS011;58975;51.978;8.472;2023-09-19T20:51:10;5.07;;;1.92;;
4857;SDS011;58975;51.978;8.472;2023-09-19T20:56:10;4.00;;;2.08;;
4857;SDS011;58975;51.978;8.472;2023-09-19T21:01:08;3.83;;;1.65;;
4857;SDS011;58975;51.978;8.472;2023-09-19T21:06:08;4.93;;;1.48;;
4857;SDS011;58975;51.978;8.472;2023-09-19T21:11:17;4.10;;;1.70;;
4857;SDS011;58975;51.978;8.472;2023-09-19T21:16:14;5.35;;;1.58;;
4857;SDS011;58975;51.978;8.472;2023-09-19T21:21:12;4.20;;;1.45;;
4857;SDS011;58975;51.978;8.472;2023-09-19T21:26:08;3.85;;;2.28;;
4857;SDS011;58975;51.978;8.472;2023-09-19T21:31:07;4.72;;;1.52;;
4857;SDS011;58975;51.978;8.472;2023-09-19T21:36:06;4.78;;;1.27;;
4857;SDS011;58975;51.978;8.472;2023-09-19T21:41:08;2.95;;;1.20;;
4857;SDS011;58975;51.978;8.472;2023-09-19T21:46:08;4.13;;;1.40;;
4857;SDS011;58975;51.978;8.472;2023-09-19T21:51:06;2.47;;;1.90;;
4857;SDS011;58975;51.978;8.472;2023-09-19T21:56:04;5.15;;;1.45;;
4857;SDS011;58975;51.978;8.472;2023-09-19T22:01:04;1.98;;;1.30;;
4857;SDS011;58975;51.978;8.472;2023-09-19T22:06:08;4.57;;;2.08;;
4857;SDS011;58975;51.978;8.472;2023-09-19T22:11:06;4.68;;;1.20;;
4857;SDS011;58975;51.978;8.472;2023-09-19T22:16:07;6.97;;;1.50;;
4857;SDS011;58975;51.978;8.472;2023-09-19T22:21:05;2.50;;;1.35;;
4857;SDS011;58975;51.978;8.472;2023-09-19T22:26:08;4.47;;;1.63;;
4857;SDS011;58975;51.978;8.472;2023-09-19T22:31:13;4.68;;;1.60;;
4857;SDS011;58975;51.978;8.472;2023-09-19T22:36:18;5.78;;;2.25;;
4857;SDS011;58975;51.978;8.472;2023-09-19T22:41:19;4.78;;;1.40;;
4857;SDS011;58975;51.978;8.472;2023-09-19T22:46:19;1.98;;;1.35;;
4857;SDS011;58975;51.978;8.472;2023-09-19T22:51:15;4.93;;;1.55;;
4857;SDS011;58975;51.978;8.472;2023-09-19T22:56:19;3.17;;;1.25;;
4857;SDS011;58975;51.978;8.472;2023-09-19T23:01:19;2.70;;;1.35;;
4857;SDS011;58975;51.978;8.472;2023-09-19T23:06:35;3.47;;;1.20;;
4857;SDS011;58975;51.978;8.472;2023-09-19T23:11:34;5.45;;;1.50;;
4857;SDS011;58975;51.978;8.472;2023-09-19T23:16:31;5.80;;;1.50;;
4857;SDS011;58975;51.978;8.472;2023-09-19T23:21:31;6.65;;;1.50;;
4857;SDS011;58975;51.978;8.472;2023-09-19T23:26:28;5.80;;;1.83;;
4857;SDS011;58975;51.978;8.472;2023-09-19T23:31:25;2.55;;;1.33;;
4857;SDS011;58975;51.978;8.472;2023-09-19T23:36:21;5.53;;;1.35;;
4857;SDS011;58975;51.978;8.472;2023-09-19T23:41:18;3.78;;;1.63;;
4857;SDS011;58975;51.978;8.472;2023-09-19T23:46:17;7.82;;;1.90;;
4857;SDS011;58975;51.978;8.472;2023-09-19T23:51:14;3.40;;;1.10;;
4857;SDS011;58975;51.978;8.472;2023-09-19T23:56:15;5.15;;;1.38;;
